Time;durP1;ratioP1;P1;durP2;ratioP2;P2;SDS_P1;SDS_P2;PMS_P1;PMS_P2;Temp;Humidity;BMP_temperature;BMP_pressure;BME280_temperature;BME280_humidity;BME280_pressure;Samples;Min_cycle;Max_cycle;Signal;HPM_P1;HPM_P2
2023/09/16 00:02:15;;;;;;;18.60;16.53;;;;;;;21.46;93.72;95183.97;5052121;28;20439;-79
2023/09/16 00:04:42;;;;;;;17.80;15.93;;;;;;;21.16;96.11;95190.38;5051781;28;20449;-79
2023/09/16 00:07:09;;;;;;;21.00;17.37;;;;;;;21.15;96.51;95183.38;5051951;28;20815;-81
2023/09/16 00:09:38;;;;;;;20.57;15.90;;;;;;;21.09;95.95;95176.94;5052902;28;20445;-79
2023/09/16 00:12:05;;;;;;;20.37;16.63;;;;;;;20.63;98.20;95182.53;5020817;28;20938;-78
2023/09/16 00:14:32;;;;;;;19.57;17.40;;;;;;;20.64;97.88;95181.53;5053409;28;20447;-80
2023/09/16 00:17:00;;;;;;;19.53;17.40;;;;;;;20.71;97.82;95177.09;5051699;28;20477;-80
2023/09/16 00:19:27;;;;;;;20.10;17.90;;;;;;;20.86;98.97;95182.44;5053620;28;20459;-80
2023/09/16 00:21:54;;;;;;;24.80;17.53;;;;;;;20.99;98.88;95176.41;5055939;28;20461;-80
2023/09/16 00:24:21;;;;;;;20.43;18.33;;;;;;;21.12;97.85;95181.09;5055551;28;20444;-80
2023/09/16 00:26:49;;;;;;;22.97;16.60;;;;;;;21.17;96.65;95182.19;5055933;28;20446;-80
2023/09/16 00:29:16;;;;;;;18.93;16.50;;;;;;;21.12;94.94;95183.75;5055619;28;20435;-80
2023/09/16 00:31:43;;;;;;;17.20;15.40;;;;;;;21.09;95.10;95179.59;5055645;28;20462;-79
2023/09/16 00:34:10;;;;;;;19.07;17.03;;;;;;;21.05;94.72;95186.34;5036823;28;20430;-79
2023/09/16 00:36:36;;;;;;;18.93;16.17;;;;;;;21.07;95.58;95180.81;5055382;28;20447;-80
2023/09/16 00:39:04;;;;;;;18.30;16.20;;;;;;;21.13;95.95;95180.91;5036806;28;20460;-80
2023/09/16 00:41:31;;;;;;;17.77;16.07;;;;;;;21.22;95.82;95173.59;5036698;28;20967;-80
2023/09/16 00:43:59;;;;;;;19.13;17.23;;;;;;;21.23;96.14;95169.91;5055374;28;20449;-80
2023/09/16 00:46:26;;;;;;;22.03;17.17;;;;;;;21.12;96.48;95178.44;5055766;28;20436;-80
2023/09/16 00:48:52;;;;;;;18.00;16.10;;;;;;;21.15;96.31;95178.06;5055169;28;20942;-80
2023/09/16 00:51:19;;;;;;;19.13;16.87;;;;;;;21.15;96.45;95178.06;5055197;28;20472;-80
2023/09/16 00:53:46;;;;;;;19.93;17.37;;;;;;;21.17;95.86;95181.34;5055446;28;20441;-80
2023/09/16 00:56:14;;;;;;;19.23;17.27;;;;;;;21.18;95.92;95188.34;5055394;28;20936;-80
2023/09/16 00:58:42;;;;;;;18.63;15.87;;;;;;;21.23;96.27;95194.81;5055324;28;20850;-80
2023/09/16 01:01:12;;;;;;;18.97;16.63;;;;;;;21.24;96.10;95190.28;5055645;28;20860;-80
2023/09/16 01:03:41;;;;;;;19.63;16.20;;;;;;;21.28;96.46;95183.56;5055638;28;20531;-80
2023/09/16 01:06:08;;;;;;;21.63;17.83;;;;;;;21.29;96.80;95186.03;5055623;28;20447;-80
2023/09/16 01:08:35;;;;;;;17.30;15.50;;;;;;;21.33;96.91;95189.16;5055213;28;20535;-80
2023/09/16 01:11:04;;;;;;;22.17;17.37;;;;;;;21.31;97.00;95189.34;5054915;28;20978;-80
2023/09/16 01:13:33;;;;;;;18.43;16.50;;;;;;;21.29;97.50;95185.22;5055120;28;20449;-80
2023/09/16 01:16:08;;;;;;;18.77;16.80;;;;;;;21.30;97.76;95177.00;5055062;28;20478;-80
2023/09/16 01:18:42;;;;;;;24.03;16.70;;;;;;;21.29;98.08;95169.19;5054667;28;20489;-79
2023/09/16 01:21:09;;;;;;;24.13;18.37;;;;;;;21.26;98.17;95164.22;5054936;28;20435;-80
2023/09/16 01:23:36;;;;;;;24.27;18.30;;;;;;;21.21;98.52;95156.75;5054976;28;20431;-80
2023/09/16 01:26:05;;;;;;;22.63;18.23;;;;;;;21.23;99.15;95156.56;5055077;28;20519;-80
2023/09/16 01:28:32;;;;;;;20.00;17.93;;;;;;;21.23;99.24;95144.09;5054592;28;20442;-80
2023/09/16 01:30:59;;;;;;;18.70;16.67;;;;;;;21.30;98.58;95150.31;5018588;28;20447;-80
2023/09/16 01:33:31;;;;;;;22.07;18.93;;;;;;;21.30;98.80;95149.50;5054660;28;20862;-80
2023/09/16 01:36:04;;;;;;;20.40;18.13;;;;;;;21.34;98.41;95156.09;5054477;28;20521;-80
2023/09/16 01:38:33;;;;;;;20.07;18.00;;;;;;;21.31;97.95;95159.97;5019403;28;20560;-80
2023/09/16 01:41:02;;;;;;;20.33;17.63;;;;;;;21.32;97.95;95163.47;5054667;28;20444;-80
2023/09/16 01:43:31;;;;;;;19.57;17.43;;;;;;;21.36;97.56;95163.91;5054477;28;20469;-80
2023/09/16 01:45:58;;;;;;;20.87;18.67;;;;;;;21.33;97.40;95159.78;5054582;28;20449;-80
2023/09/16 01:48:25;;;;;;;19.57;17.50;;;;;;;21.32;97.40;95163.47;5054833;28;20449;-80
2023/09/16 01:50:51;;;;;;;22.00;18.33;;;;;;;21.30;97.24;95168.19;5054239;28;20455;-80
2023/09/16 01:53:19;;;;;;;20.33;18.33;;;;;;;21.27;97.22;95157.88;5054331;28;20790;-80
2023/09/16 01:55:45;;;;;;;21.90;17.87;;;;;;;21.22;97.47;95163.75;5019099;28;20440;-80
2023/09/16 01:58:13;;;;;;;24.40;17.20;;;;;;;21.22;97.54;95165.59;5035315;28;20498;-80
2023/09/16 02:00:42;;;;;;;20.97;17.90;;;;;;;21.22;97.26;95165.59;5019091;28;20450;-80
2023/09/16 02:03:09;;;;;;;19.87;16.57;;;;;;;21.18;97.32;95175.81;5054212;28;20439;-80
2023/09/16 02:05:36;;;;;;;19.57;17.57;;;;;;;21.18;97.33;95175.00;5054278;28;20439;-80
2023/09/16 02:08:03;;;;;;;26.10;17.17;;;;;;;21.14;97.14;95168.41;5054121;28;20452;-80
2023/09/16 02:10:29;;;;;;;23.80;17.60;;;;;;;21.12;97.30;95173.91;5053927;28;20481;-79
2023/09/16 02:12:56;;;;;;;24.70;18.30;;;;;;;21.08;98.09;95177.13;5054470;28;20440;-80
2023/09/16 02:15:23;;;;;;;20.43;18.30;;;;;;;21.09;97.75;95184.13;5053562;28;20454;-80
2023/09/16 02:17:51;;;;;;;18.50;16.70;;;;;;;21.06;98.36;95193.31;5053666;28;21009;-79
2023/09/16 02:20:18;;;;;;;20.60;18.53;;;;;;;20.99;98.13;95185.25;5053788;28;20438;-80
2023/09/16 02:22:45;;;;;;;20.80;18.13;;;;;;;20.97;98.29;95192.63;5053508;28;20454;-80
2023/09/16 02:25:12;;;;;;;21.03;18.83;;;;;;;20.88;98.65;95190.25;5053645;28;20929;-80
2023/09/16 02:27:39;;;;;;;20.03;17.93;;;;;;;20.88;99.19;95188.41;5053440;28;20451;-80
2023/09/16 02:30:08;;;;;;;20.00;17.93;;;;;;;20.89;99.19;95182.06;5053662;28;20944;-80
2023/09/16 02:32:35;;;;;;;22.10;19.50;;;;;;;20.94;99.69;95182.31;5053769;28;20444;-79
2023/09/16 02:35:03;;;;;;;21.67;18.73;;;;;;;20.90;99.49;95183.72;5053269;28;20480;-80
2023/09/16 02:37:30;;;;;;;24.27;17.23;;;;;;;20.95;98.99;95189.31;5053535;28;20567;-79
2023/09/16 02:39:57;;;;;;;21.43;19.23;;;;;;;20.96;99.24;95198.97;5053362;28;20925;-80
2023/09/16 02:42:24;;;;;;;20.47;17.70;;;;;;;20.93;99.14;95202.00;5053329;28;20525;-80
2023/09/16 02:44:51;;;;;;;27.20;19.47;;;;;;;20.98;99.96;95199.59;5053578;28;20924;-80
2023/09/16 02:47:20;;;;;;;21.60;19.30;;;;;;;21.03;99.89;95197.19;5052864;28;20454;-80
2023/09/16 02:49:47;;;;;;;21.47;18.07;;;;;;;21.01;99.69;95201.88;5052816;28;20537;-80
2023/09/16 02:52:15;;;;;;;21.67;17.60;;;;;;;21.00;99.58;95202.91;5052947;28;20438;-80
2023/09/16 02:54:42;;;;;;;22.80;18.87;;;;;;;20.95;99.20;95209.81;5052894;28;20453;-80
2023/09/16 02:57:09;;;;;;;26.67;19.90;;;;;;;20.93;99.20;95217.19;5053473;28;20451;-80
2023/09/16 02:59:36;;;;;;;20.63;17.73;;;;;;;20.93;99.42;95215.34;5053258;28;20442;-80
2023/09/16 03:02:04;;;;;;;21.70;17.90;;;;;;;20.96;99.64;95220.31;5053002;28;20450;-79
2023/09/16 03:04:30;;;;;;;22.40;20.17;;;;;;;20.93;99.16;95211.84;5052634;28;20446;-80
2023/09/16 03:06:57;;;;;;;20.60;18.20;;;;;;;20.91;98.82;95214.72;5053037;28;20452;-80
2023/09/16 03:09:25;;;;;;;20.10;17.80;;;;;;;20.94;98.96;95221.50;5052957;28;20442;-80
2023/09/16 03:11:52;;;;;;;24.13;18.97;;;;;;;20.91;99.08;95230.72;5034027;28;20474;-80
2023/09/16 03:14:19;;;;;;;24.27;19.27;;;;;;;20.87;100.00;95218.75;5053206;28;20461;-80
2023/09/16 03:16:46;;;;;;;21.30;18.20;;;;;;;20.85;100.00;95231.47;5052968;28;20474;-80
2023/09/16 03:19:13;;;;;;;23.33;20.13;;;;;;;20.81;100.00;95235.47;5052987;28;20901;-80
2023/09/16 03:21:40;;;;;;;20.63;18.30;;;;;;;20.85;100.00;95235.97;5052966;28;20514;-80
2023/09/16 03:24:07;;;;;;;22.73;17.50;;;;;;;20.85;100.00;95236.78;5052598;28;20453;-80
2023/09/16 03:26:35;;;;;;;22.73;20.00;;;;;;;20.86;100.00;95227.78;5052854;28;20449;-80
2023/09/16 03:29:02;;;;;;;24.13;21.33;;;;;;;20.82;100.00;95231.84;5052594;28;20445;-80
2023/09/16 03:31:29;;;;;;;27.00;22.37;;;;;;;20.80;100.00;95231.16;5052399;28;20448;-79
2023/09/16 03:33:56;;;;;;;29.40;22.23;;;;;;;20.82;100.00;95234.50;5052544;28;20446;-80
2023/09/16 03:36:23;;;;;;;29.57;21.90;;;;;;;20.78;100.00;95237.69;5052605;28;20793;-80
2023/09/16 03:38:54;;;;;;;21.77;18.63;;;;;;;20.80;100.00;95241.81;5052480;28;20576;-80
2023/09/16 03:41:21;;;;;;;23.37;20.77;;;;;;;20.79;100.00;95242.84;5052288;28;20544;-80
2023/09/16 03:43:49;;;;;;;27.53;18.30;;;;;;;20.78;100.00;95243.84;5052167;28;20448;-80
2023/09/16 03:46:16;;;;;;;26.40;20.70;;;;;;;20.80;100.00;95241.00;5052636;28;20438;-80
2023/09/16 03:48:43;;;;;;;28.80;20.57;;;;;;;20.79;100.00;95242.84;5052519;28;20453;-80
2023/09/16 03:51:10;;;;;;;23.30;18.70;;;;;;;20.80;100.00;95249.81;5017303;28;20440;-80
2023/09/16 03:53:38;;;;;;;26.47;20.77;;;;;;;20.79;100.00;95253.50;5053261;28;20446;-80
2023/09/16 03:56:06;;;;;;;23.93;18.77;;;;;;;20.80;100.00;95263.16;5056266;28;20469;-80
2023/09/16 03:58:34;;;;;;;20.67;18.47;;;;;;;20.75;100.00;95262.91;5056687;28;21205;-80
2023/09/16 04:01:02;;;;;;;21.83;19.60;;;;;;;20.71;100.00;95254.44;5056402;28;20538;-79
2023/09/16 04:03:30;;;;;;;20.80;18.67;;;;;;;20.70;100.00;95255.44;5056342;28;20453;-80
2023/09/16 04:05:58;;;;;;;20.40;18.30;;;;;;;20.73;100.00;95264.91;5055120;28;20482;-79
2023/09/16 04:08:26;;;;;;;23.50;19.10;;;;;;;20.75;100.00;95278.06;5049650;28;20465;-79
2023/09/16 04:10:53;;;;;;;23.40;19.70;;;;;;;20.73;100.00;95286.25;5064780;28;20496;-79
2023/09/16 04:13:21;;;;;;;23.30;20.80;;;;;;;20.70;100.00;95286.63;5066282;28;20446;-80
2023/09/16 04:15:48;;;;;;;26.00;20.50;;;;;;;20.77;100.00;95297.38;5057374;28;20441;-80
2023/09/16 04:18:17;;;;;;;23.03;20.50;;;;;;;20.79;100.00;95298.84;5055771;28;20485;-80
2023/09/16 04:20:48;;;;;;;25.13;19.20;;;;;;;20.76;100.00;95293.06;5055959;28;20442;-79
2023/09/16 04:23:15;;;;;;;25.07;19.57;;;;;;;20.75;100.00;95304.75;5055944;28;20481;-80
2023/09/16 04:25:41;;;;;;;23.27;19.67;;;;;;;20.71;100.00;95304.28;5055799;28;20452;-80
2023/09/16 04:28:09;;;;;;;26.83;20.43;;;;;;;20.66;100.00;95296.84;5055791;28;20443;-80
2023/09/16 04:30:39;;;;;;;25.20;19.90;;;;;;;20.66;100.00;95293.34;5020729;28;20449;-79
2023/09/16 04:33:06;;;;;;;22.53;20.13;;;;;;;20.65;100.00;95295.19;5055495;28;20471;-80
2023/09/16 04:35:34;;;;;;;24.83;20.20;;;;;;;20.65;100.00;95294.34;5055383;28;20448;-79
2023/09/16 04:38:00;;;;;;;30.50;21.50;;;;;;;20.64;100.00;95292.69;5055226;28;20474;-80
2023/09/16 04:40:27;;;;;;;25.20;19.77;;;;;;;20.63;100.00;95283.03;5055318;28;20447;-79
2023/09/16 04:42:54;;;;;;;26.90;19.77;;;;;;;20.59;100.00;95274.59;5055434;28;20803;-79
2023/09/16 04:45:21;;;;;;;24.67;20.10;;;;;;;20.64;100.00;95282.84;5055640;28;20433;-79
2023/09/16 04:47:47;;;;;;;21.80;18.60;;;;;;;20.65;100.00;95284.50;5055287;28;20443;-79
2023/09/16 04:50:14;;;;;;;21.03;18.87;;;;;;;20.67;100.00;95293.16;5055316;28;20440;-79
2023/09/16 04:52:42;;;;;;;22.67;19.90;;;;;;;20.68;100.00;95299.31;5055026;28;20460;-79
2023/09/16 04:55:10;;;;;;;22.00;19.60;;;;;;;20.69;100.00;95295.63;5055614;28;20456;-80
2023/09/16 04:57:37;;;;;;;26.43;19.97;;;;;;;20.67;100.00;95293.16;5020759;28;20528;-80
2023/09/16 05:00:06;;;;;;;22.87;18.93;;;;;;;20.67;100.00;95305.66;5020033;28;20987;-79
2023/09/16 05:02:33;;;;;;;23.37;20.77;;;;;;;20.65;100.00;95299.69;5020750;28;20472;-79
2023/09/16 05:05:00;;;;;;;21.20;18.67;;;;;;;20.65;100.00;95303.19;5055024;28;20978;-79
2023/09/16 05:07:27;;;;;;;21.20;18.10;;;;;;;20.63;100.00;95307.03;5054982;28;20446;-80
2023/09/16 05:09:56;;;;;;;22.53;19.67;;;;;;;20.61;100.00;95309.06;5055194;28;20440;-79
2023/09/16 05:12:23;;;;;;;25.47;19.60;;;;;;;20.57;100.00;95311.25;5054462;28;20478;-79
2023/09/16 05:14:50;;;;;;;23.00;20.13;;;;;;;20.47;100.00;95309.84;5054768;28;20458;-79
2023/09/16 05:17:17;;;;;;;30.53;19.57;;;;;;;20.43;100.00;95306.72;5054907;28;20497;-79
2023/09/16 05:19:44;;;;;;;24.53;20.00;;;;;;;20.30;100.00;95301.97;5019533;28;20488;-79
2023/09/16 05:22:11;;;;;;;23.47;21.03;;;;;;;20.22;100.00;95301.19;5054398;28;20451;-79
2023/09/16 05:24:38;;;;;;;24.50;21.90;;;;;;;20.17;100.00;95304.41;5054698;28;20434;-79
2023/09/16 05:27:06;;;;;;;29.40;23.53;;;;;;;20.18;100.00;95303.38;5054331;28;20447;-79
2023/09/16 05:29:33;;;;;;;24.70;22.27;;;;;;;20.28;100.00;95313.81;5054275;28;20438;-79
2023/09/16 05:32:00;;;;;;;26.73;22.50;;;;;;;20.34;100.00;95327.25;5054547;28;20525;-79
2023/09/16 05:34:27;;;;;;;29.50;24.70;;;;;;;20.44;100.00;95335.03;5054437;28;20926;-79
2023/09/16 05:36:54;;;;;;;27.37;23.00;;;;;;;20.49;100.00;95337.16;5054104;28;20437;-79
2023/09/16 05:39:20;;;;;;;24.97;22.33;;;;;;;20.46;100.00;95327.69;5054083;28;20482;-79
2023/09/16 05:41:49;;;;;;;26.17;22.50;;;;;;;20.42;100.00;95323.72;5053897;28;20450;-79
2023/09/16 05:44:19;;;;;;;27.40;22.70;;;;;;;20.42;100.00;95324.56;5053739;28;20457;-79
2023/09/16 05:46:47;;;;;;;24.03;21.47;;;;;;;20.24;100.00;95325.81;5054259;28;20442;-79
2023/09/16 05:49:14;;;;;;;28.30;21.70;;;;;;;20.21;100.00;95329.69;5018802;28;20959;-79
2023/09/16 05:51:42;;;;;;;32.67;23.77;;;;;;;20.22;100.00;95331.34;5053972;28;20442;-79
2023/09/16 05:54:09;;;;;;;25.50;21.50;;;;;;;20.20;100.00;95330.69;5053808;28;20964;-79
2023/09/16 05:56:38;;;;;;;27.13;21.60;;;;;;;20.09;100.00;95331.13;5053727;28;20945;-79
2023/09/16 05:59:06;;;;;;;31.03;23.93;;;;;;;19.86;100.00;95323.09;5053687;28;20547;-79
2023/09/16 06:01:34;;;;;;;29.13;22.60;;;;;;;19.83;100.00;95330.63;5018860;28;20487;-79
2023/09/16 06:04:01;;;;;;;26.67;22.43;;;;;;;19.71;100.00;95320.38;5053675;28;20446;-79
2023/09/16 06:06:28;;;;;;;30.50;24.40;;;;;;;19.57;100.00;95322.94;5053936;28;20446;-79
2023/09/16 06:08:55;;;;;;;28.10;23.13;;;;;;;19.59;100.00;95319.09;5054085;28;20453;-79
2023/09/16 06:11:26;;;;;;;26.30;23.50;;;;;;;19.54;100.00;95326.78;5053308;28;20493;-79
2023/09/16 06:13:53;;;;;;;29.70;23.00;;;;;;;19.70;100.00;95339.19;5019691;28;20845;-79
2023/09/16 06:16:20;;;;;;;28.77;25.70;;;;;;;19.76;100.00;95346.47;5053274;28;20476;-79
2023/09/16 06:18:48;;;;;;;28.77;25.67;;;;;;;19.82;100.00;95347.59;5053873;28;20992;-79
2023/09/16 06:21:15;;;;;;;34.60;24.97;;;;;;;19.88;100.00;95347.72;5053804;28;20441;-79
2023/09/16 06:23:42;;;;;;;35.10;26.77;;;;;;;20.01;100.00;95349.84;5053643;28;20434;-79
2023/09/16 06:26:09;;;;;;;29.87;24.47;;;;;;;20.07;100.00;95346.44;5053825;28;20943;-79
2023/09/16 06:28:37;;;;;;;27.67;24.63;;;;;;;20.11;100.00;95335.25;5053373;28;20440;-79
2023/09/16 06:31:04;;;;;;;30.70;25.00;;;;;;;20.06;100.00;95339.47;5053415;28;20968;-79
2023/09/16 06:33:31;;;;;;;30.43;24.50;;;;;;;19.83;100.00;95335.94;5053613;28;20441;-79
2023/09/16 06:35:59;;;;;;;30.67;27.17;;;;;;;19.61;100.00;95335.72;5053470;28;20814;-79
2023/09/16 06:38:27;;;;;;;28.10;24.37;;;;;;;19.69;100.00;95330.38;5053615;28;20463;-79
2023/09/16 06:40:53;;;;;;;30.23;24.50;;;;;;;19.61;100.00;95340.22;5053246;28;21017;-79
2023/09/16 06:43:21;;;;;;;30.30;24.50;;;;;;;19.46;100.00;95335.63;5053588;28;20462;-79
2023/09/16 06:45:49;;;;;;;34.10;25.80;;;;;;;19.40;100.00;95335.50;5053456;28;20494;-79
2023/09/16 06:48:16;;;;;;;35.33;29.10;;;;;;;19.55;100.00;95341.75;5034415;28;20438;-79
2023/09/16 06:50:45;;;;;;;30.57;26.30;;;;;;;19.47;100.00;95329.28;5017893;28;20455;-79
2023/09/16 06:53:16;;;;;;;29.63;24.90;;;;;;;19.30;100.00;95322.38;5052937;28;20458;-79
2023/09/16 06:55:48;;;;;;;30.70;25.37;;;;;;;19.19;100.00;95323.59;5034241;28;20478;-79
2023/09/16 06:58:28;;;;;;;33.80;26.53;;;;;;;19.21;100.00;95334.06;5018474;28;20444;-79
2023/09/16 07:01:01;;;;;;;32.00;26.00;;;;;;;19.42;100.00;95354.78;5053094;28;20453;-79
2023/09/16 07:03:36;;;;;;;34.30;27.83;;;;;;;19.55;100.00;95357.72;5053368;28;20444;-79
2023/09/16 07:06:24;;;;;;;31.30;26.20;;;;;;;19.69;100.00;95364.16;5053081;28;20448;-78
2023/09/16 07:08:58;;;;;;;35.60;28.07;;;;;;;19.87;100.00;95364.72;5052974;28;20479;-80
2023/09/16 07:17:36;;;;;;;28.67;25.57;;;;;;;20.25;100.00;95363.00;4933105;29;20990;-79
2023/09/16 07:20:03;;;;;;;31.70;24.50;;;;;;;20.21;100.00;95366.16;4852623;29;20621;-79
2023/09/16 07:22:30;;;;;;;26.80;24.20;;;;;;;20.23;100.00;95367.63;4895335;29;20448;-79
2023/09/16 07:24:58;;;;;;;25.77;22.77;;;;;;;20.32;100.00;95363.94;4895214;29;20454;-79
2023/09/16 07:27:25;;;;;;;26.77;23.43;;;;;;;20.34;100.00;95363.75;4895252;29;20462;-80
2023/09/16 07:29:51;;;;;;;26.90;24.00;;;;;;;20.39;100.00;95364.03;4863368;29;20940;-79
2023/09/16 07:32:18;;;;;;;30.73;26.00;;;;;;;20.40;100.00;95363.06;4895220;29;21004;-80
2023/09/16 07:34:45;;;;;;;26.20;23.30;;;;;;;20.34;100.00;95355.75;4895007;29;20829;-80
2023/09/16 07:37:14;;;;;;;30.33;27.13;;;;;;;20.27;100.00;95360.97;4895188;29;20449;-79
2023/09/16 07:39:50;;;;;;;29.80;26.60;;;;;;;20.26;100.00;95355.81;4929847;29;20492;-79
2023/09/16 07:42:35;;;;;;;30.70;27.57;;;;;;;20.18;100.00;95362.00;4932967;29;20447;-79
2023/09/16 07:45:18;;;;;;;28.93;25.57;;;;;;;20.19;100.00;95363.69;4916923;29;21275;-79
2023/09/16 07:48:10;;;;;;;28.57;25.30;;;;;;;20.23;100.00;95348.97;4927832;28;20449;-79
2023/09/16 07:51:24;;;;;;;;;;;;;;;;;;;;;
2023/09/16 07:54:46;;;;;;;;;;;;;;;;;;;;;
2023/09/16 07:57:15;;;;;;;30.07;25.27;;;;;;;20.40;100.00;95377.22;4776462;29;20475;-79
2023/09/16 07:59:45;;;;;;;29.83;25.77;;;;;;;20.48;100.00;95376.31;4839034;29;20483;-79
2023/09/16 08:02:14;;;;;;;36.90;27.33;;;;;;;20.54;100.00;95374.78;4839306;29;20448;-79
2023/09/16 08:04:40;;;;;;;28.97;25.97;;;;;;;20.58;100.00;95373.44;4838988;29;20473;-79
2023/09/16 08:07:09;;;;;;;26.57;23.77;;;;;;;20.61;100.00;95363.22;4839024;29;20456;-79
2023/09/16 08:09:36;;;;;;;33.40;24.40;;;;;;;20.57;100.00;95361.09;4839161;29;20513;-79
2023/09/16 08:12:03;;;;;;;29.73;26.63;;;;;;;20.53;100.00;95362.44;4839193;29;20494;-79
2023/09/16 08:14:29;;;;;;;35.20;26.07;;;;;;;20.55;100.00;95357.78;4848104;29;20445;-79
2023/09/16 08:17:02;;;;;;;31.30;27.70;;;;;;;20.30;100.00;95359.78;4872360;29;20457;-79
2023/09/16 08:19:29;;;;;;;37.10;29.40;;;;;;;20.22;100.00;95357.16;4951710;29;20487;-78
2023/09/16 08:21:56;;;;;;;34.17;29.27;;;;;;;20.15;100.00;95354.38;5031711;28;20442;-79
2023/09/16 08:24:23;;;;;;;33.93;30.03;;;;;;;20.13;100.00;95364.38;5052275;28;20460;-79
2023/09/16 08:26:50;;;;;;;38.23;31.63;;;;;;;20.18;100.00;95362.00;5052197;28;20528;-79
2023/09/16 08:29:16;;;;;;;36.37;31.70;;;;;;;20.26;100.00;95377.16;5016677;28;20438;-79
2023/09/16 08:31:43;;;;;;;36.27;32.27;;;;;;;20.35;100.00;95376.91;5016795;28;20461;-79
2023/09/16 08:34:11;;;;;;;38.40;32.83;;;;;;;20.33;100.00;95378.09;5033033;28;20961;-79
2023/09/16 08:36:38;;;;;;;33.50;29.00;;;;;;;20.35;100.00;95379.56;5051784;28;20446;-79
2023/09/16 08:39:05;;;;;;;34.60;29.73;;;;;;;20.49;100.00;95379.81;5051892;28;20437;-79
2023/09/16 08:41:41;;;;;;;34.83;28.30;;;;;;;20.55;100.00;95379.94;5055060;28;20456;-79
2023/09/16 08:44:10;;;;;;;29.77;25.80;;;;;;;20.53;100.00;95392.63;5055261;28;20444;-79
2023/09/16 08:46:45;;;;;;;33.60;26.47;;;;;;;20.67;100.00;95388.34;5055598;28;20441;-79
2023/09/16 08:49:16;;;;;;;30.00;26.57;;;;;;;20.75;100.00;95398.94;5055557;28;20442;-79
2023/09/16 08:51:44;;;;;;;29.00;25.90;;;;;;;20.84;100.00;95399.72;5055278;28;20443;-79
2023/09/16 08:54:12;;;;;;;32.73;26.20;;;;;;;20.85;100.00;95407.53;5055273;28;20475;-79
2023/09/16 08:56:40;;;;;;;39.13;27.77;;;;;;;20.89;100.00;95414.16;5055024;28;20461;-79
2023/09/16 08:59:07;;;;;;;29.57;26.23;;;;;;;20.87;100.00;95410.00;5055178;28;20440;-78
2023/09/16 09:01:34;;;;;;;29.17;26.07;;;;;;;20.90;100.00;95412.31;5055275;28;20952;-79
2023/09/16 09:04:02;;;;;;;28.50;24.30;;;;;;;20.84;100.00;95411.22;5054839;28;20476;-79
2023/09/16 09:06:33;;;;;;;27.67;24.67;;;;;;;20.90;100.00;95415.81;5054893;28;20886;-79
2023/09/16 09:08:59;;;;;;;31.37;23.30;;;;;;;20.98;100.00;95410.38;5056230;28;20443;-79
2023/09/16 09:11:30;;;;;;;27.20;24.40;;;;;;;21.03;100.00;95409.84;5054825;28;20469;-79
2023/09/16 09:14:00;;;;;;;32.70;24.90;;;;;;;21.15;100.00;95407.56;5054833;28;20536;-79
2023/09/16 09:16:29;;;;;;;26.47;21.67;;;;;;;21.22;100.00;95395.16;5054971;28;20472;-79
2023/09/16 09:18:58;;;;;;;27.30;22.17;;;;;;;21.55;100.00;95407.16;5054772;28;20437;-79
2023/09/16 09:21:25;;;;;;;26.60;24.03;;;;;;;21.80;100.00;95401.50;5054330;28;20492;-79
2023/09/16 09:23:53;;;;;;;25.90;21.90;;;;;;;22.02;100.00;95405.06;5054883;28;20453;-79
2023/09/16 09:26:20;;;;;;;20.93;18.77;;;;;;;22.12;100.00;95405.63;5054617;28;20448;-79
2023/09/16 09:28:47;;;;;;;23.07;20.57;;;;;;;22.17;100.00;95398.69;5054732;28;20445;-79
2023/09/16 09:31:14;;;;;;;22.00;19.13;;;;;;;22.20;100.00;95397.47;5054681;28;20852;-79
2023/09/16 09:33:42;;;;;;;21.67;18.33;;;;;;;22.29;100.00;95403.56;5054384;28;20442;-79
2023/09/16 09:36:13;;;;;;;20.83;18.67;;;;;;;22.44;100.00;95398.97;5054310;28;20795;-79
2023/09/16 09:38:41;;;;;;;18.57;16.70;;;;;;;22.64;100.00;95399.16;5054315;28;20450;-79
2023/09/16 09:41:09;;;;;;;19.30;16.87;;;;;;;22.63;96.93;95398.34;5054094;28;20480;-79
2023/09/16 09:43:36;;;;;;;18.97;17.03;;;;;;;22.72;98.88;95393.69;5054582;28;20452;-80
2023/09/16 09:46:03;;;;;;;20.60;17.57;;;;;;;22.97;99.91;95386.91;5054218;28;20447;-80
2023/09/16 09:48:31;;;;;;;20.57;17.20;;;;;;;23.23;98.34;95386.28;5054145;28;20447;-80
2023/09/16 09:50:58;;;;;;;22.63;19.10;;;;;;;23.34;94.96;95379.53;5053868;28;20484;-79
2023/09/16 09:53:26;;;;;;;18.57;16.57;;;;;;;23.46;95.21;95386.84;5053763;28;20444;-80
2023/09/16 09:55:53;;;;;;;17.93;16.07;;;;;;;23.45;93.99;95392.41;5054018;28;20493;-80
2023/09/16 09:58:21;;;;;;;18.47;16.50;;;;;;;23.39;93.11;95382.47;5054396;28;20445;-79
2023/09/16 10:00:49;;;;;;;22.07;15.17;;;;;;;23.40;93.51;95389.47;5053841;28;20484;-79
2023/09/16 10:03:18;;;;;;;18.63;15.20;;;;;;;23.43;91.39;95395.28;5054354;28;20445;-80
2023/09/16 10:05:45;;;;;;;18.63;16.53;;;;;;;23.54;90.77;95391.22;5054059;28;20455;-79
2023/09/16 10:08:13;;;;;;;21.03;16.77;;;;;;;23.67;91.14;95393.97;5053600;28;20452;-80
2023/09/16 10:10:41;;;;;;;19.30;15.60;;;;;;;23.77;94.83;95381.06;5053578;28;20448;-80
2023/09/16 10:13:08;;;;;;;16.90;15.03;;;;;;;23.97;92.67;95389.16;5053532;28;20452;-79
2023/09/16 10:15:40;;;;;;;17.00;15.20;;;;;;;24.15;89.99;95374.38;5053480;28;20461;-80
2023/09/16 10:18:08;;;;;;;14.47;12.93;;;;;;;24.34;87.63;95379.84;5053357;28;20440;-80
2023/09/16 10:20:41;;;;;;;16.00;14.50;;;;;;;24.48;87.63;95375.31;5053551;28;21014;-79
2023/09/16 10:23:08;;;;;;;12.57;11.33;;;;;;;24.37;84.32;95382.13;5053757;28;20459;-80
2023/09/16 10:25:35;;;;;;;14.67;13.20;;;;;;;24.36;83.32;95379.63;5053463;28;20447;-80
2023/09/16 10:28:04;;;;;;;17.07;13.07;;;;;;;24.14;84.04;95370.88;5053283;28;20442;-79
2023/09/16 10:30:33;;;;;;;13.13;11.60;;;;;;;24.31;85.73;95382.09;5053495;28;20445;-80
2023/09/16 10:33:04;;;;;;;12.30;11.20;;;;;;;24.33;82.73;95374.69;5053519;28;20514;-79
2023/09/16 10:35:32;;;;;;;12.87;11.50;;;;;;;24.38;80.37;95372.22;5053261;28;20469;-79
2023/09/16 10:38:01;;;;;;;12.10;10.90;;;;;;;24.23;82.06;95374.19;5053320;28;20998;-80
2023/09/16 10:40:28;;;;;;;12.60;11.30;;;;;;;24.24;83.12;95370.47;5052801;28;20540;-79
2023/09/16 10:42:57;;;;;;;12.23;11.13;;;;;;;24.38;84.54;95365.00;5052758;28;20452;-79
2023/09/16 10:45:25;;;;;;;13.40;12.00;;;;;;;24.49;84.08;95362.72;5053139;28;20449;-81
2023/09/16 10:47:53;;;;;;;12.97;11.67;;;;;;;24.50;81.94;95365.19;5052744;28;20839;-81
2023/09/16 10:50:25;;;;;;;13.30;12.10;;;;;;;24.55;81.20;95362.72;5053121;28;20511;-81
2023/09/16 10:52:55;;;;;;;13.60;12.20;;;;;;;24.36;81.78;95352.81;5053112;28;20445;-81
2023/09/16 10:55:30;;;;;;;13.17;11.87;;;;;;;24.38;83.28;95345.38;5052690;28;20453;-81
2023/09/16 10:58:03;;;;;;;13.43;12.17;;;;;;;24.16;85.18;95343.84;5052990;28;20444;-80
2023/09/16 11:00:37;;;;;;;13.43;12.00;;;;;;;24.07;84.32;95344.06;5052665;28;20489;-80
2023/09/16 11:03:06;;;;;;;14.13;11.03;;;;;;;23.73;82.55;95347.66;5053084;28;20631;-80
2023/09/16 11:05:36;;;;;;;13.60;11.77;;;;;;;23.64;84.75;95338.09;5052716;28;20475;-81
2023/09/16 11:08:03;;;;;;;13.47;11.63;;;;;;;23.71;84.72;95333.63;5053131;28;20444;-81
2023/09/16 11:10:30;;;;;;;15.03;11.17;;;;;;;23.76;86.38;95325.81;5052688;28;20438;-79
2023/09/16 11:12:57;;;;;;;12.20;11.10;;;;;;;23.82;85.63;95326.84;5052703;28;20453;-80
2023/09/16 11:15:32;;;;;;;12.80;10.80;;;;;;;23.88;86.80;95328.72;5052608;28;20932;-79
2023/09/16 11:18:02;;;;;;;13.47;11.87;;;;;;;23.94;88.59;95322.53;5052651;28;20472;-80
2023/09/16 11:20:31;;;;;;;12.50;10.37;;;;;;;24.02;88.84;95308.97;5052516;28;20481;-79
2023/09/16 11:23:01;;;;;;;12.27;10.40;;;;;;;24.15;89.11;95308.16;5052368;28;20535;-80
2023/09/16 11:25:31;;;;;;;10.00;9.00;;;;;;;24.14;82.09;95309.19;5052515;28;20445;-80
2023/09/16 11:27:58;;;;;;;9.77;8.80;;;;;;;24.12;80.75;95305.06;5052361;28;20448;-80